Time;durP1;ratioP1;P1;durP2;ratioP2;P2;SDS_P1;SDS_P2;PMS_P1;PMS_P2;Temp;Humidity;BMP_temperature;BMP_pressure;BME280_temperature;BME280_humidity;BME280_pressure;Samples;Min_cycle;Max_cycle;Signal;HPM_P1;HPM_P2
2022/09/05 00:02:03;;;;;;;1.85;1.00;;;26.30;42.10;;;;;;5026454;28;20360;-55
2022/09/05 00:04:49;;;;;;;1.73;1.17;;;26.30;42.20;;;;;;5028278;28;20029;-52
2022/09/05 00:07:27;;;;;;;3.30;1.30;;;26.30;42.20;;;;;;5023225;28;20037;-55
2022/09/05 00:10:02;;;;;;;1.30;0.90;;;26.30;42.30;;;;;;5025899;28;20029;-54
2022/09/05 00:12:31;;;;;;;1.50;0.90;;;26.30;42.30;;;;;;5029433;28;20052;-54
2022/09/05 00:15:22;;;;;;;2.17;1.10;;;26.30;42.30;;;;;;5030843;28;20028;-53
2022/09/05 00:18:09;;;;;;;1.48;0.90;;;26.30;42.30;;;;;;5031873;28;20017;-52
2022/09/05 00:20:46;;;;;;;1.30;1.17;;;26.30;42.30;;;;;;5029226;28;20500;-51
2022/09/05 00:23:44;;;;;;;1.42;1.00;;;26.20;42.40;;;;;;5030669;28;20040;-55
2022/09/05 00:26:39;;;;;;;1.85;1.23;;;26.30;42.50;;;;;;5028220;28;20099;-52
2022/09/05 00:29:13;;;;;;;1.92;1.20;;;26.20;42.40;;;;;;5026620;28;20040;-51
2022/09/05 00:31:54;;;;;;;2.20;1.13;;;26.20;42.50;;;;;;5031819;28;20036;-53
2022/09/05 00:34:40;;;;;;;1.10;0.80;;;26.20;42.50;;;;;;5031697;28;20033;-53
2022/09/05 00:37:09;;;;;;;1.50;1.02;;;26.20;42.60;;;;;;5026107;28;20029;-52
2022/09/05 00:39:41;;;;;;;2.05;1.00;;;26.20;42.70;;;;;;5029906;28;20071;-52
2022/09/05 00:42:12;;;;;;;1.98;1.02;;;26.20;42.70;;;;;;5031694;28;20040;-52
2022/09/05 00:44:58;;;;;;;1.15;1.05;;;26.20;42.80;;;;;;5029500;28;20034;-53
2022/09/05 00:47:44;;;;;;;1.63;1.10;;;26.20;42.80;;;;;;5028147;28;20056;-53
2022/09/05 00:50:26;;;;;;;1.70;1.00;;;26.20;42.90;;;;;;5028832;28;20033;-52
2022/09/05 00:52:56;;;;;;;1.92;1.10;;;26.20;42.90;;;;;;5031053;28;20079;-49
2022/09/05 00:55:35;;;;;;;1.88;1.08;;;26.20;43.00;;;;;;5031217;28;20091;-51
2022/09/05 00:58:46;;;;;;;2.20;1.27;;;26.20;43.10;;;;;;5027033;28;20025;-52
2022/09/05 01:01:44;;;;;;;1.23;0.90;;;26.20;43.80;;;;;;5025160;28;20172;-50
2022/09/05 01:04:37;;;;;;;1.30;1.08;;;26.20;43.20;;;;;;4997489;28;20034;-53
2022/09/05 01:07:12;;;;;;;1.48;1.10;;;26.20;43.20;;;;;;5021548;28;20058;-53
2022/09/05 01:09:52;;;;;;;2.40;1.33;;;26.20;43.40;;;;;;5031676;28;20033;-53
2022/09/05 01:12:40;;;;;;;1.27;1.15;;;26.20;43.40;;;;;;5028731;28;20120;-53
2022/09/05 01:15:19;;;;;;;3.22;1.20;;;26.20;43.50;;;;;;5028533;28;20033;-53
2022/09/05 01:18:13;;;;;;;1.20;1.10;;;26.20;43.50;;;;;;5028271;28;20026;-49
2022/09/05 01:21:10;;;;;;;1.25;1.15;;;26.20;43.60;;;;;;5025979;28;20040;-51
2022/09/05 01:23:57;;;;;;;2.05;1.17;;;26.10;43.50;;;;;;5027543;28;20037;-53
2022/09/05 01:26:55;;;;;;;1.80;1.17;;;26.10;43.60;;;;;;5027381;28;20140;-50
2022/09/05 01:29:33;;;;;;;1.98;1.30;;;26.10;43.70;;;;;;5021448;28;20025;-52
2022/09/05 01:32:16;;;;;;;1.95;1.15;;;26.10;43.80;;;;;;5028854;28;20051;-54
2022/09/05 01:34:53;;;;;;;2.03;1.40;;;26.10;43.80;;;;;;5025801;28;20113;-55
2022/09/05 01:37:36;;;;;;;2.00;1.40;;;26.10;43.90;;;;;;5027094;28;20029;-51
2022/09/05 01:40:33;;;;;;;1.92;1.20;;;26.10;43.90;;;;;;5028135;28;20045;-52
2022/09/05 01:43:30;;;;;;;1.98;1.17;;;26.10;44.00;;;;;;5026794;28;20037;-52
2022/09/05 01:45:58;;;;;;;2.72;1.40;;;26.10;44.00;;;;;;5030000;28;20458;-55
2022/09/05 01:48:39;;;;;;;2.15;1.60;;;26.10;44.10;;;;;;5029346;28;20068;-49
2022/09/05 01:51:49;;;;;;;1.90;1.27;;;26.00;44.10;;;;;;5026049;28;20029;-56
2022/09/05 01:54:37;;;;;;;2.05;1.33;;;26.00;44.10;;;;;;5004797;28;20033;-53
2022/09/05 01:57:42;;;;;;;1.65;1.40;;;26.00;44.20;;;;;;5027063;28;20037;-54
2022/09/05 02:00:29;;;;;;;1.33;1.17;;;26.00;44.20;;;;;;5022697;28;20038;-56
2022/09/05 02:03:16;;;;;;;1.98;1.23;;;26.00;44.30;;;;;;5026903;28;20280;-53
2022/09/05 02:06:00;;;;;;;1.83;1.25;;;26.00;44.40;;;;;;5015863;28;20084;-52
2022/09/05 02:08:44;;;;;;;1.85;1.27;;;26.00;44.40;;;;;;5029867;28;20119;-56
2022/09/05 02:11:12;;;;;;;1.83;1.13;;;26.00;44.50;;;;;;5028227;28;20125;-51
2022/09/05 02:14:02;;;;;;;1.55;1.23;;;26.00;44.50;;;;;;5029010;28;20026;-55
2022/09/05 02:16:43;;;;;;;2.58;1.50;;;26.00;44.50;;;;;;5024745;28;20052;-51
2022/09/05 02:19:13;;;;;;;1.40;1.30;;;26.00;44.60;;;;;;5028591;28;20033;-51
2022/09/05 02:22:13;;;;;;;2.28;1.40;;;26.00;44.70;;;;;;5021272;28;20576;-54
2022/09/05 02:24:44;;;;;;;1.80;1.35;;;26.00;44.70;;;;;;5027730;28;20033;-53
2022/09/05 02:27:36;;;;;;;1.40;1.20;;;26.00;44.80;;;;;;5028203;28;20041;-52
2022/09/05 02:30:08;;;;;;;2.20;1.60;;;26.00;44.70;;;;;;5026430;28;20364;-55
2022/09/05 02:33:12;;;;;;;1.70;1.30;;;26.00;44.80;;;;;;5027154;28;20142;-54
2022/09/05 02:36:12;;;;;;;1.48;1.30;;;26.00;44.80;;;;;;5027642;28;20107;-55
2022/09/05 02:38:51;;;;;;;2.33;1.55;;;26.00;44.90;;;;;;5029541;28;20445;-51
2022/09/05 02:41:34;;;;;;;3.28;1.55;;;25.90;44.90;;;;;;5027533;28;20176;-53
2022/09/05 02:44:19;;;;;;;2.85;1.40;;;25.90;44.90;;;;;;5028114;28;20040;-54
2022/09/05 02:46:50;;;;;;;;;;;25.90;45.00;;;;;;5023708;28;20034;-56
2022/09/05 02:49:32;;;;;;;1.52;1.23;;;25.90;45.00;;;;;;5026687;28;20307;-54
2022/09/05 02:52:04;;;;;;;1.90;1.38;;;25.90;45.00;;;;;;5029585;28;20033;-55
2022/09/05 02:54:35;;;;;;;2.10;1.45;;;25.90;45.00;;;;;;5030222;28;20025;-51
2022/09/05 02:57:19;;;;;;;2.03;1.40;;;25.90;45.10;;;;;;5023810;28;20033;-53
2022/09/05 02:59:45;;;;;;;;;;;25.90;45.10;;;;;;5028602;28;20056;-54
2022/09/05 03:02:34;;;;;;;1.60;1.40;;;25.80;45.10;;;;;;5025873;28;19909;-55
2022/09/05 03:05:13;;;;;;;2.42;1.45;;;25.80;45.10;;;;;;5025917;28;20060;-54
2022/09/05 03:07:47;;;;;;;2.35;1.38;;;25.80;45.20;;;;;;5027596;28;20068;-53
2022/09/05 03:10:16;;;;;;;;;;;25.80;45.20;;;;;;5029759;28;20506;-53
2022/09/05 03:13:00;;;;;;;2.15;1.70;;;25.80;45.20;;;;;;5026834;28;19909;-54
2022/09/05 03:15:51;;;;;;;1.70;1.40;;;25.80;45.20;;;;;;5026208;28;20025;-53
2022/09/05 03:18:44;;;;;;;1.30;1.20;;;25.80;45.30;;;;;;5027594;28;20065;-52
2022/09/05 03:21:47;;;;;;;1.90;1.50;;;25.80;45.30;;;;;;5026278;28;20026;-51
2022/09/05 03:25:10;;;;;;;2.00;1.50;;;25.80;45.40;;;;;;5028113;28;20039;-52
2022/09/05 03:28:02;;;;;;;4.13;1.60;;;25.80;45.40;;;;;;4965879;28;20034;-51
2022/09/05 03:30:52;;;;;;;1.98;1.63;;;25.80;45.40;;;;;;4966345;28;20054;-51
2022/09/05 03:33:46;;;;;;;3.00;1.67;;;25.80;45.50;;;;;;5014593;28;20092;-52
2022/09/05 03:36:33;;;;;;;2.75;1.80;;;25.80;45.60;;;;;;5026578;28;20030;-53
2022/09/05 03:39:19;;;;;;;3.00;1.80;;;25.70;45.50;;;;;;5028952;28;20083;-55
2022/09/05 03:42:30;;;;;;;2.33;1.75;;;25.70;45.60;;;;;;5027931;28;20105;-51
2022/09/05 03:45:28;;;;;;;1.73;1.60;;;25.80;45.60;;;;;;5029416;28;20742;-55
2022/09/05 03:48:03;;;;;;;2.15;1.58;;;25.70;45.60;;;;;;5031470;28;20038;-53
2022/09/05 03:50:55;;;;;;;2.42;1.70;;;25.70;45.70;;;;;;5026588;28;20098;-56
2022/09/05 03:53:42;;;;;;;1.90;1.70;;;25.70;45.70;;;;;;5018631;28;20038;-55
2022/09/05 03:56:38;;;;;;;2.35;1.55;;;25.70;45.70;;;;;;5026750;28;20036;-52
2022/09/05 03:59:26;;;;;;;2.72;1.77;;;25.70;45.70;;;;;;5033282;28;20025;-56
2022/09/05 04:02:01;;;;;;;3.38;1.90;;;25.70;45.80;;;;;;5030495;28;20351;-49
2022/09/05 04:04:47;;;;;;;3.45;1.90;;;25.70;45.80;;;;;;5032838;28;20040;-56
2022/09/05 04:07:37;;;;;;;3.35;2.05;;;25.70;45.90;;;;;;5028199;28;20029;-55
2022/09/05 04:10:20;;;;;;;2.35;1.65;;;25.70;45.90;;;;;;5031359;28;20029;-53
2022/09/05 04:12:53;;;;;;;2.40;1.70;;;25.60;45.80;;;;;;5031064;28;20479;-55
2022/09/05 04:15:34;;;;;;;2.60;1.83;;;25.60;45.80;;;;;;5029402;28;20041;-51
2022/09/05 04:18:17;;;;;;;2.17;1.77;;;25.70;45.90;;;;;;5031533;28;20436;-53
2022/09/05 04:20:55;;;;;;;3.22;2.20;;;25.70;46.00;;;;;;5031701;28;20029;-54
2022/09/05 04:23:33;;;;;;;2.58;1.85;;;25.60;45.90;;;;;;5030590;28;20030;-52
2022/09/05 04:26:19;;;;;;;2.67;1.73;;;25.60;46.00;;;;;;5026070;28;20419;-53
2022/09/05 04:29:13;;;;;;;2.10;1.77;;;25.60;46.00;;;;;;5031378;28;21853;-53
2022/09/05 04:32:05;;;;;;;2.35;1.85;;;25.60;46.00;;;;;;5031719;28;20021;-52
2022/09/05 04:34:39;;;;;;;3.10;1.88;;;25.60;46.00;;;;;;5028354;28;20496;-53
2022/09/05 04:37:08;;;;;;;2.30;1.85;;;25.60;46.00;;;;;;5030817;28;20026;-55
2022/09/05 04:39:35;;;;;;;2.90;1.80;;;25.60;46.10;;;;;;5033004;28;20065;-52
2022/09/05 04:42:04;;;;;;;3.13;2.00;;;25.60;46.10;;;;;;5028052;28;20404;-49
2022/09/05 04:44:42;;;;;;;2.17;1.70;;;25.60;46.10;;;;;;5029797;28;20040;-53
2022/09/05 04:47:13;;;;;;;2.45;1.88;;;25.60;46.10;;;;;;5025801;28;20037;-52
2022/09/05 04:49:42;;;;;;;3.70;1.90;;;25.60;46.10;;;;;;5031036;28;20044;-52
2022/09/05 04:52:34;;;;;;;3.28;2.00;;;25.60;46.10;;;;;;5027466;28;20486;-50
2022/09/05 04:55:18;;;;;;;2.30;1.90;;;25.60;46.10;;;;;;5030532;28;20346;-52
2022/09/05 04:58:05;;;;;;;2.38;1.80;;;25.60;46.10;;;;;;5031207;28;20088;-54
2022/09/05 05:01:05;;;;;;;3.30;2.08;;;25.60;46.20;;;;;;5028795;28;20036;-50
2022/09/05 05:03:33;;;;;;;5.88;2.33;;;25.60;46.20;;;;;;5012028;28;20041;-53
2022/09/05 05:06:01;;;;;;;2.53;1.70;;;25.60;46.20;;;;;;5027301;28;20087;-53
2022/09/05 05:09:00;;;;;;;3.08;2.10;;;25.50;46.20;;;;;;5027081;28;20132;-52
2022/09/05 05:11:35;;;;;;;4.63;2.00;;;25.50;46.20;;;;;;5029663;28;20065;-54
2022/09/05 05:14:25;;;;;;;4.38;2.30;;;25.60;46.30;;;;;;5031827;28;20025;-55
2022/09/05 05:17:14;;;;;;;3.42;2.25;;;25.60;46.30;;;;;;5028125;28;20401;-53
2022/09/05 05:19:51;;;;;;;2.60;1.98;;;25.50;46.30;;;;;;5014363;28;20045;-53
2022/09/05 05:22:17;;;;;;;2.45;1.88;;;25.50;46.30;;;;;;5026025;28;20061;-54
2022/09/05 05:24:55;;;;;;;2.47;1.80;;;25.50;46.30;;;;;;5026443;28;20034;-55
2022/09/05 05:27:35;;;;;;;2.85;2.17;;;25.50;46.30;;;;;;5027944;28;20060;-52
2022/09/05 05:30:07;;;;;;;2.30;1.95;;;25.50;46.40;;;;;;5025731;28;20021;-55
2022/09/05 05:32:37;;;;;;;3.08;2.15;;;25.50;46.40;;;;;;5029152;28;20021;-52
2022/09/05 05:35:11;;;;;;;3.50;2.20;;;25.50;46.40;;;;;;5030005;28;20044;-50
2022/09/05 05:37:45;;;;;;;3.28;2.38;;;25.50;46.50;;;;;;5026244;28;20473;-50
2022/09/05 05:40:14;;;;;;;3.15;2.13;;;25.50;46.50;;;;;;5028469;28;20034;-50
2022/09/05 05:42:41;;;;;;;3.10;2.28;;;25.50;46.50;;;;;;5023695;28;20021;-55
2022/09/05 05:45:28;;;;;;;3.50;2.25;;;25.50;46.50;;;;;;5027736;28;20044;-53
2022/09/05 05:48:04;;;;;;;3.47;2.50;;;25.50;46.50;;;;;;5031006;28;20033;-54
2022/09/05 05:50:44;;;;;;;2.92;1.95;;;25.50;46.60;;;;;;5027449;28;20033;-52
2022/09/05 05:53:15;;;;;;;2.80;1.92;;;25.50;46.60;;;;;;5028367;28;20492;-54
2022/09/05 05:56:00;;;;;;;2.60;2.05;;;25.50;46.60;;;;;;5018734;28;20113;-52
2022/09/05 05:58:28;;;;;;;4.32;2.42;;;25.50;46.60;;;;;;5027776;28;20083;-55
2022/09/05 06:00:54;;;;;;;3.10;2.03;;;25.50;46.70;;;;;;5025484;28;20028;-55
2022/09/05 06:03:34;;;;;;;2.95;2.20;;;25.50;46.70;;;;;;5030821;28;20377;-54
2022/09/05 06:06:38;;;;;;;2.80;2.17;;;25.50;46.70;;;;;;5026991;28;20040;-53
2022/09/05 06:09:06;;;;;;;2.75;2.20;;;25.50;46.80;;;;;;5028448;28;20065;-52
2022/09/05 06:11:43;;;;;;;3.58;1.98;;;25.50;46.80;;;;;;5026634;28;20122;-51
2022/09/05 06:14:47;;;;;;;3.33;2.60;;;25.40;46.80;;;;;;5026106;28;20476;-52
2022/09/05 06:17:38;;;;;;;2.78;2.05;;;25.50;46.90;;;;;;5028450;28;20385;-54
2022/09/05 06:20:31;;;;;;;3.00;2.00;;;25.50;47.00;;;;;;5027177;28;20025;-52
2022/09/05 06:23:09;;;;;;;3.25;1.90;;;25.50;47.00;;;;;;5029901;28;20025;-56
2022/09/05 06:26:09;;;;;;;2.45;1.90;;;25.40;47.00;;;;;;5027595;28;20029;-55
2022/09/05 06:28:53;;;;;;;3.40;2.38;;;25.40;47.00;;;;;;5024665;28;20041;-56
2022/09/05 06:31:27;;;;;;;3.55;2.50;;;25.40;47.10;;;;;;5022246;28;20039;-57
2022/09/05 06:34:42;;;;;;;3.50;2.35;;;25.50;47.20;;;;;;5027893;28;20079;-59
2022/09/05 06:37:27;;;;;;;4.07;2.40;;;25.50;47.20;;;;;;4992482;28;20037;-55
2022/09/05 06:40:10;;;;;;;;;;;25.50;47.30;;;;;;5029626;28;20060;-53
2022/09/05 06:42:48;;;;;;;3.42;2.10;;;25.40;47.20;;;;;;5026925;28;19909;-54
2022/09/05 06:45:29;;;;;;;3.75;2.30;;;25.50;47.40;;;;;;5026808;28;20034;-53
2022/09/05 06:48:17;;;;;;;3.33;2.42;;;25.40;47.40;;;;;;5022852;28;20096;-55
2022/09/05 06:51:02;;;;;;;4.47;2.85;;;25.40;47.40;;;;;;5021256;28;20392;-55
2022/09/05 06:53:38;;;;;;;2.75;2.08;;;25.50;47.60;;;;;;5027421;28;20029;-53
2022/09/05 06:56:33;;;;;;;3.10;2.20;;;25.40;47.50;;;;;;5026475;28;20424;-56
2022/09/05 06:59:34;;;;;;;3.20;2.28;;;25.50;47.70;;;;;;5027113;28;20036;-54
2022/09/05 07:02:11;;;;;;;3.58;2.42;;;25.50;47.70;;;;;;5020664;28;20030;-52
2022/09/05 07:05:02;;;;;;;4.00;2.55;;;25.50;47.70;;;;;;5026393;28;20099;-55
2022/09/05 07:07:37;;;;;;;3.90;2.13;;;25.50;47.70;;;;;;5032082;28;20038;-54
2022/09/05 07:10:37;;;;;;;3.42;2.05;;;25.60;47.80;;;;;;5019549;28;22129;-55
2022/09/05 07:13:05;;;;;;;2.55;2.20;;;25.60;47.70;;;;;;4982935;28;20318;-51
2022/09/05 07:15:49;;;;;;;3.20;2.50;;;25.60;47.80;;;;;;5023361;28;20029;-55
2022/09/05 07:18:21;;;;;;;3.20;2.40;;;25.60;47.80;;;;;;5014272;28;20461;-56
2022/09/05 07:21:15;;;;;;;5.40;2.50;;;25.60;47.80;;;;;;5022403;28;20034;-54
2022/09/05 07:24:02;;;;;;;2.92;2.10;;;25.60;47.80;;;;;;5014766;28;20034;-56
2022/09/05 07:26:33;;;;;;;4.32;2.53;;;25.60;47.80;;;;;;5028712;28;20172;-55
2022/09/05 07:29:03;;;;;;;4.28;2.50;;;25.70;47.90;;;;;;5024983;28;20037;-56
2022/09/05 07:31:32;;;;;;;3.13;2.13;;;25.60;47.90;;;;;;5026825;28;20104;-55
2022/09/05 07:34:25;;;;;;;4.40;2.88;;;25.70;48.00;;;;;;5024222;28;20037;-55
2022/09/05 07:36:56;;;;;;;4.75;2.45;;;25.70;48.00;;;;;;5020275;28;20452;-56
2022/09/05 07:39:27;;;;;;;3.63;2.30;;;25.70;48.00;;;;;;5016767;28;20187;-55
2022/09/05 07:41:57;;;;;;;3.72;2.13;;;25.70;48.10;;;;;;5025700;28;20330;-51
2022/09/05 07:44:43;;;;;;;2.92;2.20;;;25.70;48.10;;;;;;5028800;28;20041;-51
2022/09/05 07:47:25;;;;;;;3.58;2.10;;;25.70;48.10;;;;;;5014497;28;20046;-53
2022/09/05 07:49:52;;;;;;;3.60;2.55;;;25.70;48.10;;;;;;5021568;28;20061;-55
2022/09/05 07:52:22;;;;;;;2.75;2.25;;;25.70;48.10;;;;;;5021715;28;20026;-55
2022/09/05 07:54:52;;;;;;;2.65;2.00;;;25.70;48.10;;;;;;5023891;28;20104;-56
2022/09/05 07:57:31;;;;;;;3.47;2.63;;;25.80;48.20;;;;;;5041292;28;20052;-50
2022/09/05 08:00:08;;;;;;;4.47;2.47;;;25.80;48.30;;;;;;5025847;28;20179;-55
2022/09/05 08:02:47;;;;;;;2.90;1.95;;;25.80;48.30;;;;;;5022709;28;20125;-54
2022/09/05 08:05:15;;;;;;;3.33;2.35;;;25.80;48.90;;;;;;5024971;28;20030;-54
2022/09/05 08:07:43;;;;;;;3.28;2.25;;;25.80;48.30;;;;;;5027325;28;20025;-54
2022/09/05 08:10:15;;;;;;;2.10;1.90;;;25.80;48.30;;;;;;5024358;28;20053;-53
2022/09/05 08:13:10;;;;;;;3.88;2.22;;;25.80;48.30;;;;;;5021789;28;20528;-56
2022/09/05 08:15:38;;;;;;;3.67;2.20;;;25.80;48.30;;;;;;5024584;28;20063;-51
2022/09/05 08:18:27;;;;;;;2.72;2.25;;;25.80;48.30;;;;;;5024936;28;20030;-56
2022/09/05 08:21:00;;;;;;;2.60;2.03;;;25.80;48.30;;;;;;5023514;28;20033;-54
2022/09/05 08:23:32;;;;;;;3.13;2.20;;;25.80;48.40;;;;;;5017463;28;20026;-54
2022/09/05 08:26:07;;;;;;;3.25;2.03;;;25.80;48.30;;;;;;5014695;28;20030;-52
2022/09/05 08:28:39;;;;;;;3.88;2.10;;;25.80;48.40;;;;;;5014586;28;20121;-55
2022/09/05 08:31:18;;;;;;;3.03;2.03;;;25.80;48.40;;;;;;5015735;28;20109;-55
2022/09/05 08:33:48;;;;;;;3.17;2.10;;;25.80;48.40;;;;;;5017888;28;20041;-52
2022/09/05 08:36:39;;;;;;;3.15;2.20;;;25.80;48.40;;;;;;5018150;28;20041;-52
2022/09/05 08:39:07;;;;;;;2.10;1.80;;;25.80;48.40;;;;;;5035620;28;20033;-54
2022/09/05 08:41:50;;;;;;;3.05;2.05;;;25.80;48.40;;;;;;5037804;28;20055;-52
2022/09/05 08:44:40;;;;;;;3.20;2.53;;;25.90;48.60;;;;;;5037517;28;20106;-52
2022/09/05 08:47:33;;;;;;;3.55;2.13;;;25.90;48.60;;;;;;5032456;28;20760;-52
2022/09/05 08:50:31;;;;;;;4.05;2.70;;;25.80;48.60;;;;;;5017636;28;20037;-53
2022/09/05 08:53:15;;;;;;;2.97;2.15;;;25.90;48.70;;;;;;5035313;28;20044;-51
2022/09/05 08:55:50;;;;;;;;;;;25.90;48.80;;;;;;5031481;28;20052;-54
2022/09/05 08:58:51;;;;;;;2.70;1.90;;;25.90;48.80;;;;;;5017503;28;20241;-51
2022/09/05 09:01:26;;;;;;;3.95;2.25;;;25.80;48.70;;;;;;5023374;28;20434;-52
2022/09/05 09:04:10;;;;;;;4.40;2.38;;;25.90;48.70;;;;;;5018022;28;20057;-52
2022/09/05 09:07:17;;;;;;;2.30;1.90;;;25.90;48.60;;;;;;5017052;28;20029;-52
2022/09/05 09:10:09;;;;;;;2.55;1.90;;;25.90;48.60;;;;;;5006889;28;20095;-52
2022/09/05 09:12:34;;;;;;;2.22;1.90;;;25.90;48.50;;;;;;5016794;28;20049;-54
2022/09/05 09:15:33;;;;;;;3.00;1.73;;;25.90;48.50;;;;;;5021010;28;20457;-54
2022/09/05 09:18:06;;;;;;;2.42;1.75;;;25.90;48.50;;;;;;5014366;28;20064;-53
2022/09/05 09:20:45;;;;;;;2.53;1.70;;;25.90;48.40;;;;;;5027917;28;20026;-54
2022/09/05 09:23:18;;;;;;;3.90;1.60;;;25.90;48.40;;;;;;5031905;28;20107;-56
2022/09/05 09:26:01;;;;;;;2.55;1.63;;;25.90;48.30;;;;;;5023411;28;20340;-55
2022/09/05 09:28:43;;;;;;;3.03;1.90;;;26.00;48.30;;;;;;5036443;28;20452;-54
2022/09/05 09:31:38;;;;;;;2.50;1.40;;;26.00;48.20;;;;;;5028535;28;20029;-56
2022/09/05 09:34:26;;;;;;;2.38;1.60;;;26.00;48.10;;;;;;5017290;28;20349;-50
2022/09/05 09:36:57;;;;;;;2.90;1.30;;;26.00;48.00;;;;;;5017713;28;20068;-52
2022/09/05 09:39:45;;;;;;;3.33;1.60;;;26.00;48.00;;;;;;5032695;28;20455;-54
2022/09/05 09:42:10;;;;;;;2.33;1.55;;;26.00;48.00;;;;;;5035978;28;20033;-50
2022/09/05 09:45:01;;;;;;;3.03;1.50;;;26.00;47.90;;;;;;5036694;28;20495;-58
2022/09/05 09:48:04;;;;;;;2.63;1.50;;;26.00;47.80;;;;;;5036596;28;20041;-55
2022/09/05 09:50:46;;;;;;;3.15;1.40;;;26.00;47.50;;;;;;5017403;28;20125;-52
2022/09/05 09:53:46;;;;;;;2.35;1.30;;;26.00;47.40;;;;;;5020913;28;20034;-56
2022/09/05 09:56:31;;;;;;;3.83;1.48;;;26.00;47.10;;;;;;5022251;28;20044;-55
2022/09/05 09:59:31;;;;;;;2.33;1.00;;;26.00;47.00;;;;;;5016969;28;20109;-56
2022/09/05 10:02:14;;;;;;;1.92;1.10;;;26.00;46.70;;;;;;5015964;28;20377;-55
2022/09/05 10:05:16;;;;;;;1.55;1.00;;;26.00;46.50;;;;;;5016285;28;20033;-54
2022/09/05 10:08:33;;;;;;;2.15;1.10;;;26.10;46.30;;;;;;5031349;28;20444;-54
2022/09/05 10:11:02;;;;;;;1.10;0.77;;;26.00;45.90;;;;;;5002264;28;20091;-53
2022/09/05 10:13:46;;;;;;;1.80;0.95;;;26.00;45.60;;;;;;5035819;28;20455;-51
2022/09/05 10:16:34;;;;;;;1.25;1.00;;;26.10;45.40;;;;;;5034618;28;20037;-57
2022/09/05 10:19:30;;;;;;;1.05;0.90;;;26.10;45.20;;;;;;5034885;28;20021;-56
2022/09/05 10:22:22;;;;;;;0.68;0.68;;;26.10;44.90;;;;;;5025486;28;20353;-57
2022/09/05 10:25:08;;;;;;;1.30;0.75;;;26.10;44.70;;;;;;5034900;28;20091;-53
2022/09/05 10:27:37;;;;;;;1.33;0.90;;;26.10;44.60;;;;;;5015690;28;20038;-55
2022/09/05 10:30:15;;;;;;;1.90;0.90;;;26.10;44.50;;;;;;5015249;28;20045;-60
2022/09/05 10:33:00;;;;;;;1.45;0.80;;;26.10;44.20;;;;;;5022858;28;20453;-58
2022/09/05 10:35:29;;;;;;;;;;;26.10;44.70;;;;;;5024978;28;20457;-60
2022/09/05 10:38:34;;;;;;;1.05;0.75;;;26.10;44.10;;;;;;5019717;28;19909;-60
2022/09/05 10:41:09;;;;;;;1.52;0.80;;;26.20;44.20;;;;;;5003390;28;20045;-60
2022/09/05 10:43:49;;;;;;;1.35;0.75;;;26.20;44.20;;;;;;5024729;28;20040;-59
2022/09/05 10:46:36;;;;;;;1.20;0.70;;;26.30;44.20;;;;;;5022153;28;20068;-56
2022/09/05 10:49:08;;;;;;;1.10;0.80;;;26.40;44.20;;;;;;5019355;28;20026;-61
2022/09/05 10:51:42;;;;;;;1.42;0.93;;;26.60;44.10;;;;;;5015443;28;20080;-62
2022/09/05 10:54:36;;;;;;;0.90;0.77;;;26.70;43.90;;;;;;5032027;28;20083;-62
2022/09/05 10:57:32;;;;;;;1.70;1.05;;;26.80;43.60;;;;;;5033467;28;20476;-59
2022/09/05 11:00:28;;;;;;;1.45;0.90;;;26.90;43.40;;;;;;5033672;28;20037;-59
2022/09/05 11:02:57;;;;;;;1.55;0.80;;;27.10;43.10;;;;;;5018206;28;20038;-61
2022/09/05 11:05:29;;;;;;;1.02;0.77;;;27.20;42.90;;;;;;5018529;28;20064;-60
2022/09/05 11:08:15;;;;;;;0.60;0.60;;;27.30;42.80;;;;;;5021257;28;20115;-64
2022/09/05 11:10:55;;;;;;;1.10;0.82;;;27.40;42.70;;;;;;5021500;28;20056;-62
2022/09/05 11:13:41;;;;;;;0.80;0.73;;;27.50;42.80;;;;;;5022140;28;20030;-60
2022/09/05 11:16:24;;;;;;;4.55;0.63;;;27.60;42.70;;;;;;5024609;28;20032;-58
2022/09/05 11:19:08;;;;;;;1.25;0.70;;;27.70;42.70;;;;;;5020801;28;20053;-56
2022/09/05 11:21:59;;;;;;;3.72;1.00;;;27.80;42.60;;;;;;5025450;28;20384;-57
2022/09/05 11:24:39;;;;;;;1.20;0.70;;;27.90;42.40;;;;;;5022552;28;20033;-59
2022/09/05 11:27:20;;;;;;;1.65;0.73;;;28.00;42.10;;;;;;5019455;28;20030;-57
2022/09/05 11:30:06;;;;;;;0.60;0.60;;;28.00;41.90;;;;;;5032250;28;20036;-56
2022/09/05 11:32:50;;;;;;;0.77;0.77;;;28.10;41.80;;;;;;5030037;28;20441;-55
2022/09/05 11:35:27;;;;;;;0.77;0.60;;;28.10;41.50;;;;;;5027894;28;20025;-58
2022/09/05 11:38:07;;;;;;;1.05;0.70;;;28.10;41.30;;;;;;5031938;28;20120;-60
2022/09/05 11:41:10;;;;;;;0.77;0.50;;;28.10;41.10;;;;;;5021210;28;20030;-59
2022/09/05 11:44:16;;;;;;;0.85;0.60;;;28.10;41.00;;;;;;5020238;28;20033;-59
2022/09/05 11:47:14;;;;;;;0.55;0.52;;;28.10;41.00;;;;;;5008989;28;20543;-61
2022/09/05 11:50:02;;;;;;;0.80;0.60;;;28.10;41.10;;;;;;5005139;28;20056;-61
2022/09/05 11:52:47;;;;;;;1.27;0.50;;;28.10;41.00;;;;;;5014523;28;20109;-59
2022/09/05 11:55:25;;;;;;;0.77;0.73;;;28.20;40.90;;;;;;5018355;28;20041;-58
2022/09/05 11:58:06;;;;;;;2.30;0.55;;;28.20;40.90;;;;;;5020604;28;20029;-60
2022/09/05 12:00:55;;;;;;;0.70;0.60;;;28.30;41.00;;;;;;5015042;28;20026;-59
2022/09/05 12:04:07;;;;;;;2.20;1.00;;;28.30;40.90;;;;;;5022290;28;20022;-63
2022/09/05 12:06:56;;;;;;;2.28;0.82;;;28.30;40.80;;;;;;5023840;28;20112;-64
2022/09/05 12:09:40;;;;;;;2.45;1.08;;;28.50;41.10;;;;;;5026387;28;20025;-62
2022/09/05 12:12:31;;;;;;;2.90;0.98;;;28.50;41.30;;;;;;5024687;28;20136;-62
2022/09/05 12:15:23;;;;;;;2.55;0.80;;;28.50;41.40;;;;;;5027697;28;20120;-60
2022/09/05 12:18:04;;;;;;;3.45;0.70;;;28.60;41.50;;;;;;5023949;28;20038;-61
2022/09/05 12:20:41;;;;;;;3.15;0.60;;;28.60;41.50;;;;;;5024423;28;20049;-59
2022/09/05 12:23:26;;;;;;;0.60;0.50;;;28.70;41.30;;;;;;5027319;28;20041;-58
2022/09/05 12:26:20;;;;;;;3.03;0.85;;;28.80;41.30;;;;;;5028198;28;20053;-56
2022/09/05 12:28:54;;;;;;;2.70;0.75;;;28.80;41.10;;;;;;5027350;28;20194;-57
2022/09/05 12:31:44;;;;;;;0.90;0.80;;;28.80;41.00;;;;;;5023999;28;20448;-55
2022/09/05 12:34:17;;;;;;;4.93;0.77;;;28.80;40.80;;;;;;5026152;28;20041;-58
2022/09/05 12:36:48;;;;;;;0.90;0.60;;;28.80;40.50;;;;;;5023778;28;20049;-60
2022/09/05 12:39:36;;;;;;;1.65;0.60;;;28.90;40.40;;;;;;5027129;28;20041;-60
2022/09/05 12:42:32;;;;;;;1.30;0.60;;;28.90;40.00;;;;;;5027009;28;20342;-59
2022/09/05 12:45:31;;;;;;;0.88;0.70;;;28.90;40.00;;;;;;5025199;28;20029;-61
2022/09/05 12:48:10;;;;;;;1.50;0.60;;;28.90;39.80;;;;;;5025363;28;20342;-59
2022/09/05 12:50:45;;;;;;;0.88;0.60;;;29.00;39.70;;;;;;5022303;28;20030;-58
2022/09/05 12:53:19;;;;;;;0.85;0.60;;;29.00;39.50;;;;;;5025985;28;20076;-58
2022/09/05 12:56:06;;;;;;;1.13;0.52;;;29.00;39.30;;;;;;5023178;28;20036;-56
2022/09/05 12:58:35;;;;;;;1.02;0.60;;;29.00;39.20;;;;;;5025189;28;20368;-57
2022/09/05 13:01:15;;;;;;;0.90;0.50;;;29.00;39.20;;;;;;5024620;28;20076;-58
2022/09/05 13:03:56;;;;;;;2.03;0.80;;;29.00;39.00;;;;;;5020621;28;20068;-54
2022/09/05 13:06:28;;;;;;;0.70;0.70;;;29.00;38.90;;;;;;5024343;28;20029;-56
2022/09/05 13:09:06;;;;;;;1.02;0.70;;;29.00;38.80;;;;;;5022407;28;20061;-53
2022/09/05 13:12:08;;;;;;;3.15;0.70;;;29.10;38.80;;;;;;5016711;28;20046;-49
2022/09/05 13:15:04;;;;;;;0.95;0.60;;;29.10;38.80;;;;;;4992662;28;20370;-51
2022/09/05 13:17:43;;;;;;;0.70;0.52;;;29.00;38.60;;;;;;5018432;28;20030;-54
2022/09/05 13:20:32;;;;;;;0.45;0.45;;;29.00;38.60;;;;;;5021961;28;20049;-52
2022/09/05 13:23:13;;;;;;;1.35;0.60;;;28.90;38.50;;;;;;5020916;28;20480;-51
2022/09/05 13:25:42;;;;;;;1.33;0.63;;;28.80;38.50;;;;;;5016881;28;20088;-54
2022/09/05 13:28:13;;;;;;;0.80;0.63;;;28.80;38.50;;;;;;5021162;28;20104;-57
2022/09/05 13:30:55;;;;;;;0.77;0.60;;;28.70;38.50;;;;;;5019840;28;20033;-53
2022/09/05 13:33:38;;;;;;;0.77;0.60;;;28.60;39.00;;;;;;5018694;28;20022;-57
2022/09/05 13:36:07;;;;;;;0.90;0.50;;;28.50;38.30;;;;;;5022413;28;20042;-56
2022/09/05 13:39:11;;;;;;;0.70;0.70;;;28.50;38.40;;;;;;5016971;28;20067;-54
2022/09/05 13:41:55;;;;;;;0.85;0.50;;;28.40;38.30;;;;;;5020696;28;20590;-56
2022/09/05 13:44:24;;;;;;;1.67;0.63;;;28.30;38.40;;;;;;5016230;28;20087;-55
2022/09/05 13:46:55;;;;;;;0.65;0.50;;;28.20;38.40;;;;;;5015924;28;20022;-55
2022/09/05 13:49:33;;;;;;;1.25;0.70;;;28.20;38.60;;;;;;5018546;28;20397;-55
2022/09/05 13:52:24;;;;;;;0.73;0.60;;;28.10;38.60;;;;;;5022318;28;20026;-56
2022/09/05 13:55:28;;;;;;;0.98;0.52;;;28.10;38.60;;;;;;5018198;28;20112;-58
2022/09/05 13:58:06;;;;;;;0.70;0.60;;;28.10;38.60;;;;;;5013473;28;20033;-58
2022/09/05 14:00:37;;;;;;;0.50;0.50;;;28.00;38.60;;;;;;5023151;28;20332;-57
2022/09/05 14:03:33;;;;;;;1.00;0.60;;;27.90;38.50;;;;;;5016341;28;20473;-55
2022/09/05 14:06:21;;;;;;;0.55;0.50;;;27.90;38.40;;;;;;5019933;28;20040;-56
2022/09/05 14:09:03;;;;;;;0.60;0.60;;;27.80;38.30;;;;;;5023365;28;20030;-56
2022/09/05 14:11:35;;;;;;;0.70;0.50;;;27.80;38.30;;;;;;5015692;28;20140;-58